Time;durP1;ratioP1;P1;durP2;ratioP2;P2;SDS_P1;SDS_P2;PMS_P1;PMS_P2;Temp;Humidity;BMP_temperature;BMP_pressure;BME280_temperature;BME280_humidity;BME280_pressure;Samples;Min_cycle;Max_cycle;Signal;HPM_P1;HPM_P2
2022/10/14 00:01:14;;;;;;;90.03;44.45;;;12.10;99.90;;;;;;4990893;28;20087;-68
2022/10/14 00:03:41;;;;;;;83.88;45.30;;;12.10;99.90;;;;;;5008033;28;20050;-68
2022/10/14 00:06:13;;;;;;;78.00;40.72;;;12.10;99.90;;;;;;5004980;28;20124;-68
2022/10/14 00:08:42;;;;;;;97.03;46.05;;;12.10;99.90;;;;;;5008199;28;20069;-68
2022/10/14 00:11:11;;;;;;;100.03;45.35;;;12.10;99.90;;;;;;4988347;28;20038;-69
2022/10/14 00:13:37;;;;;;;130.35;53.78;;;12.10;99.90;;;;;;4984984;28;20124;-68
2022/10/14 00:16:04;;;;;;;90.68;43.38;;;12.10;99.90;;;;;;5005362;28;20033;-69
2022/10/14 00:18:31;;;;;;;90.03;43.20;;;12.10;99.90;;;;;;5003066;28;20044;-69
2022/10/14 00:20:59;;;;;;;84.05;43.90;;;12.10;99.90;;;;;;5006786;28;20049;-68
2022/10/14 00:23:25;;;;;;;111.32;47.83;;;12.10;99.90;;;;;;5025771;28;20492;-69
2022/10/14 00:25:51;;;;;;;98.05;44.55;;;12.10;99.90;;;;;;4989778;28;20045;-68
2022/10/14 00:28:17;;;;;;;104.72;47.13;;;12.00;99.90;;;;;;5000415;28;20091;-68
2022/10/14 00:30:57;;;;;;;89.10;42.20;;;12.00;99.90;;;;;;5005716;28;20516;-69
2022/10/14 00:33:24;;;;;;;85.90;41.72;;;12.00;99.90;;;;;;4989469;28;20064;-69
2022/10/14 00:35:53;;;;;;;77.13;40.42;;;12.00;99.90;;;;;;5004501;28;20041;-69
2022/10/14 00:38:19;;;;;;;120.65;46.70;;;12.00;99.90;;;;;;5024585;28;20084;-69
2022/10/14 00:40:45;;;;;;;82.60;39.75;;;12.00;99.90;;;;;;5007977;28;20085;-68
2022/10/14 00:43:14;;;;;;;90.25;41.95;;;12.00;99.90;;;;;;4988693;28;20046;-67
2022/10/14 00:45:40;;;;;;;113.47;45.13;;;12.00;99.90;;;;;;5006315;28;20041;-69
2022/10/14 00:48:07;;;;;;;86.90;41.47;;;12.00;99.90;;;;;;5004984;28;20056;-69
2022/10/14 00:50:34;;;;;;;81.82;41.45;;;12.00;99.90;;;;;;4990707;28;20124;-69
2022/10/14 00:53:00;;;;;;;150.25;52.10;;;12.00;99.90;;;;;;4974298;28;20037;-69
2022/10/14 00:55:27;;;;;;;92.32;43.85;;;11.90;99.90;;;;;;5001888;28;20125;-69
2022/10/14 00:57:53;;;;;;;108.25;46.53;;;12.00;99.90;;;;;;4992431;28;20387;-69
2022/10/14 01:00:20;;;;;;;82.03;40.92;;;11.90;99.90;;;;;;4990104;28;20048;-69
2022/10/14 01:02:46;;;;;;;114.07;46.63;;;11.90;99.90;;;;;;4986774;28;20033;-69
2022/10/14 01:05:14;;;;;;;92.63;43.55;;;11.90;99.90;;;;;;5006447;28;20037;-69
2022/10/14 01:07:54;;;;;;;85.47;39.42;;;11.90;99.90;;;;;;5006187;28;20037;-68
2022/10/14 01:11:01;;;;;;;84.15;40.15;;;11.90;99.90;;;;;;4987815;28;20052;-69
2022/10/14 01:13:46;;;;;;;98.70;42.78;;;11.90;99.90;;;;;;4982234;28;20041;-69
2022/10/14 01:16:24;;;;;;;120.78;44.35;;;11.80;99.90;;;;;;4999918;28;20045;-69
2022/10/14 01:19:09;;;;;;;84.57;40.25;;;11.80;99.90;;;;;;4986902;28;20041;-68
2022/10/14 01:21:43;;;;;;;88.75;42.17;;;11.80;99.90;;;;;;4987304;28;20037;-69
2022/10/14 01:24:27;;;;;;;87.50;39.95;;;11.80;99.90;;;;;;4984442;28;20501;-69
2022/10/14 01:27:02;;;;;;;99.65;40.97;;;11.80;99.90;;;;;;5020882;28;20038;-69
2022/10/14 01:29:58;;;;;;;91.75;40.50;;;11.70;99.90;;;;;;5006586;28;20042;-69
2022/10/14 01:32:31;;;;;;;83.20;35.38;;;11.70;99.90;;;;;;5023892;28;20069;-68
2022/10/14 01:35:09;;;;;;;;;;;11.60;99.90;;;;;;4987848;28;20034;-69
2022/10/14 01:37:43;;;;;;;57.55;30.25;;;11.60;99.90;;;;;;5005601;28;19929;-68
2022/10/14 01:40:16;;;;;;;69.45;33.15;;;11.50;99.90;;;;;;4986903;28;20061;-68
2022/10/14 01:42:45;;;;;;;91.18;36.67;;;11.50;99.90;;;;;;5002232;28;20498;-68
2022/10/14 01:45:22;;;;;;;68.50;33.03;;;11.40;99.90;;;;;;5004929;28;20033;-69
2022/10/14 01:47:50;;;;;;;95.00;34.95;;;11.40;99.90;;;;;;5005730;28;20502;-68
2022/10/14 01:50:19;;;;;;;76.57;32.47;;;11.30;99.90;;;;;;5004018;28;20048;-69
2022/10/14 01:53:10;;;;;;;83.57;32.20;;;11.30;99.90;;;;;;4990918;28;20483;-69
2022/10/14 01:55:40;;;;;;;73.47;31.33;;;11.30;99.90;;;;;;5022216;28;20045;-69
2022/10/14 01:58:09;;;;;;;66.53;29.75;;;11.20;99.90;;;;;;5003161;28;20116;-68
2022/10/14 02:00:37;;;;;;;72.90;29.80;;;11.20;99.90;;;;;;4988039;28;20041;-69
2022/10/14 02:03:02;;;;;;;81.38;33.40;;;11.20;99.90;;;;;;5003160;28;20368;-69
2022/10/14 02:05:44;;;;;;;83.50;31.70;;;11.20;99.90;;;;;;4992783;28;20045;-68
2022/10/14 02:08:12;;;;;;;97.95;30.60;;;11.20;99.90;;;;;;5024492;28;20482;-68
2022/10/14 02:11:04;;;;;;;80.53;30.38;;;11.20;99.90;;;;;;5005395;28;20549;-69
2022/10/14 02:13:54;;;;;;;88.10;32.45;;;11.20;99.90;;;;;;4993088;28;20068;-69
2022/10/14 02:16:48;;;;;;;143.10;37.67;;;11.10;99.90;;;;;;5005686;28;20033;-68
2022/10/14 02:19:20;;;;;;;142.45;36.55;;;11.10;99.90;;;;;;5002936;28;20045;-68
2022/10/14 02:21:55;;;;;;;;;;;11.10;99.90;;;;;;5004932;28;20048;-68
2022/10/14 02:24:33;;;;;;;165.43;35.42;;;11.10;99.90;;;;;;5002283;28;19942;-68
2022/10/14 02:27:03;;;;;;;198.50;39.65;;;11.00;99.90;;;;;;4988785;28;20049;-69
2022/10/14 02:29:30;;;;;;;144.10;34.22;;;11.00;99.90;;;;;;5006781;28;20091;-68
2022/10/14 02:31:58;;;;;;;153.88;37.55;;;11.00;99.90;;;;;;4991318;28;20045;-68
2022/10/14 02:34:25;;;;;;;210.85;38.60;;;11.00;99.90;;;;;;4973548;28;20051;-67
2022/10/14 02:36:53;;;;;;;297.80;43.17;;;10.90;99.90;;;;;;5003000;28;20486;-68
2022/10/14 02:39:36;;;;;;;282.27;43.13;;;10.90;99.90;;;;;;5002176;28;20154;-67
2022/10/14 02:42:02;;;;;;;198.85;34.80;;;10.90;99.90;;;;;;5005349;28;20130;-69
2022/10/14 02:44:28;;;;;;;317.70;43.30;;;10.90;99.90;;;;;;5003155;28;20051;-68
2022/10/14 02:46:55;;;;;;;213.70;38.03;;;10.90;99.90;;;;;;5006280;28;20038;-67
2022/10/14 02:49:21;;;;;;;244.40;40.20;;;10.90;99.90;;;;;;5008806;28;20534;-68
2022/10/14 02:51:47;;;;;;;145.98;33.70;;;10.80;99.90;;;;;;5006267;28;20494;-68
2022/10/14 02:54:13;;;;;;;260.70;37.25;;;10.80;99.90;;;;;;5009076;28;20063;-67
2022/10/14 02:56:39;;;;;;;259.65;41.88;;;10.80;99.90;;;;;;4994913;28;20072;-69
2022/10/14 02:59:04;;;;;;;356.33;44.10;;;10.80;99.90;;;;;;5009393;28;20059;-68
2022/10/14 03:01:31;;;;;;;296.20;42.90;;;10.80;99.90;;;;;;5008996;28;20044;-67
2022/10/14 03:03:56;;;;;;;423.33;47.53;;;10.70;99.90;;;;;;5005855;28;20069;-69
2022/10/14 03:06:22;;;;;;;260.75;35.25;;;10.70;99.90;;;;;;5006867;28;20127;-68
2022/10/14 03:08:48;;;;;;;283.45;39.35;;;10.70;99.90;;;;;;5007764;28;20049;-68
2022/10/14 03:11:14;;;;;;;284.67;39.10;;;10.70;99.90;;;;;;4991965;28;20060;-68
2022/10/14 03:13:40;;;;;;;230.63;32.15;;;10.70;99.90;;;;;;5009818;28;20045;-69
2022/10/14 03:16:06;;;;;;;260.58;36.17;;;10.60;99.90;;;;;;4983911;28;20127;-68
2022/10/14 03:18:32;;;;;;;271.90;41.08;;;10.50;99.90;;;;;;4990437;28;20433;-68
2022/10/14 03:20:57;;;;;;;198.75;31.33;;;10.50;99.90;;;;;;4992252;28;20519;-68
2022/10/14 03:23:23;;;;;;;176.57;27.52;;;10.50;99.90;;;;;;5003675;28;20049;-68
2022/10/14 03:25:49;;;;;;;142.05;27.60;;;10.50;99.90;;;;;;5007660;28;20167;-68
2022/10/14 03:28:15;;;;;;;187.45;32.55;;;10.50;99.90;;;;;;5026631;28;20034;-69
2022/10/14 03:30:40;;;;;;;191.00;27.23;;;10.50;99.90;;;;;;5005271;28;20449;-69
2022/10/14 03:33:06;;;;;;;143.73;25.33;;;10.50;99.90;;;;;;5007984;28;20486;-68
2022/10/14 03:35:32;;;;;;;215.98;27.35;;;10.50;99.90;;;;;;5004537;28;20045;-68
2022/10/14 03:38:01;;;;;;;149.60;23.45;;;10.50;99.90;;;;;;5004618;28;20128;-68
2022/10/14 03:40:26;;;;;;;141.40;23.75;;;10.50;99.90;;;;;;4993949;28;20088;-68
2022/10/14 03:42:52;;;;;;;128.00;21.45;;;10.40;99.90;;;;;;5006719;28;20071;-68
2022/10/14 03:45:18;;;;;;;110.53;20.98;;;10.40;99.90;;;;;;4990300;28;20033;-69
2022/10/14 03:47:44;;;;;;;180.98;25.38;;;10.40;99.90;;;;;;4990025;28;20454;-68
2022/10/14 03:50:09;;;;;;;255.73;31.33;;;10.50;99.90;;;;;;5004761;28;20124;-68
2022/10/14 03:52:35;;;;;;;223.40;29.65;;;10.50;99.90;;;;;;5025331;28;20035;-68
2022/10/14 03:55:01;;;;;;;130.80;24.88;;;10.50;99.90;;;;;;5008490;28;20046;-68
2022/10/14 03:57:27;;;;;;;222.82;29.73;;;10.50;99.90;;;;;;4989359;28;20040;-68
2022/10/14 03:59:53;;;;;;;200.95;30.27;;;10.50;99.90;;;;;;4977616;28;20120;-68
2022/10/14 04:02:18;;;;;;;126.93;24.08;;;10.50;99.90;;;;;;4988323;28;20506;-69
2022/10/14 04:04:44;;;;;;;205.52;31.25;;;10.50;99.90;;;;;;5008470;28;20041;-69
2022/10/14 04:07:10;;;;;;;142.20;29.50;;;10.60;99.90;;;;;;5008864;28;20076;-69
2022/10/14 04:09:36;;;;;;;92.32;31.00;;;10.60;99.90;;;;;;4991064;28;20088;-68
2022/10/14 04:12:02;;;;;;;121.93;33.33;;;10.60;99.90;;;;;;4989576;28;20900;-67
2022/10/14 04:14:30;;;;;;;150.60;40.03;;;10.60;99.90;;;;;;4988267;28;20307;-68
2022/10/14 04:16:56;;;;;;;109.20;34.55;;;10.60;99.90;;;;;;5006730;28;20041;-68
2022/10/14 04:19:21;;;;;;;100.63;32.75;;;10.60;99.90;;;;;;5004994;28;20041;-68
2022/10/14 04:21:47;;;;;;;134.27;37.63;;;10.60;99.90;;;;;;5005368;28;20045;-68
2022/10/14 04:24:14;;;;;;;125.45;35.88;;;10.70;99.90;;;;;;4992537;28;20041;-68
2022/10/14 04:26:40;;;;;;;121.18;38.05;;;10.70;99.90;;;;;;5007727;28;20494;-68
2022/10/14 04:29:06;;;;;;;123.93;36.50;;;10.70;99.90;;;;;;4992699;28;20039;-68
2022/10/14 04:31:31;;;;;;;160.63;40.60;;;10.70;99.90;;;;;;5006461;28;20041;-68
2022/10/14 04:33:57;;;;;;;107.07;33.25;;;10.70;99.90;;;;;;4977316;28;20394;-68
2022/10/14 04:36:23;;;;;;;146.70;41.63;;;10.70;99.90;;;;;;5006646;28;20038;-68
2022/10/14 04:38:48;;;;;;;117.03;36.17;;;10.70;99.90;;;;;;5005225;28;20091;-69
2022/10/14 04:41:14;;;;;;;141.18;41.83;;;10.80;99.90;;;;;;5007877;28;20033;-69
2022/10/14 04:43:40;;;;;;;115.35;39.03;;;10.80;99.90;;;;;;4990814;28;20084;-68
2022/10/14 04:46:06;;;;;;;216.00;50.78;;;10.80;99.90;;;;;;4989699;28;20091;-69
2022/10/14 04:48:31;;;;;;;114.30;40.92;;;10.80;99.90;;;;;;4992410;28;20033;-69
2022/10/14 04:50:57;;;;;;;108.57;36.28;;;10.80;99.90;;;;;;4980177;28;20033;-68
2022/10/14 04:53:23;;;;;;;126.30;41.85;;;10.80;99.90;;;;;;5011189;28;20534;-68
2022/10/14 04:55:50;;;;;;;238.60;49.90;;;10.80;99.90;;;;;;4983457;28;20132;-68
2022/10/14 04:58:16;;;;;;;156.18;41.63;;;10.80;99.90;;;;;;5002687;28;20103;-69
2022/10/14 05:00:42;;;;;;;105.18;34.10;;;10.80;99.90;;;;;;4993844;28;20411;-68
2022/10/14 05:03:07;;;;;;;218.10;50.05;;;10.80;99.90;;;;;;5001089;28;20129;-68
2022/10/14 05:05:33;;;;;;;202.95;48.03;;;10.80;99.90;;;;;;5011544;28;20049;-68
2022/10/14 05:07:59;;;;;;;130.27;39.17;;;10.90;99.90;;;;;;4990922;28;20038;-68
2022/10/14 05:10:25;;;;;;;134.30;40.85;;;10.90;99.90;;;;;;4984700;28;20034;-68
2022/10/14 05:12:51;;;;;;;136.88;37.72;;;10.80;99.90;;;;;;4994509;28;20056;-68
2022/10/14 05:15:17;;;;;;;77.05;28.67;;;10.90;99.90;;;;;;4987914;28;20040;-68
2022/10/14 05:17:43;;;;;;;59.55;25.98;;;10.90;99.90;;;;;;4994804;28;20120;-68
2022/10/14 05:20:10;;;;;;;57.05;23.42;;;10.80;99.90;;;;;;5005807;28;20034;-68
2022/10/14 05:22:36;;;;;;;62.42;26.10;;;10.80;99.90;;;;;;5010691;28;20494;-68
2022/10/14 05:25:03;;;;;;;73.70;27.52;;;10.80;99.90;;;;;;5006210;28;20044;-68
2022/10/14 05:27:29;;;;;;;58.00;24.17;;;10.80;99.90;;;;;;5004214;28;20061;-68
2022/10/14 05:29:55;;;;;;;57.60;26.73;;;10.80;99.90;;;;;;5001290;28;20411;-68
2022/10/14 05:32:21;;;;;;;56.38;23.73;;;10.80;99.90;;;;;;4971755;28;20442;-68
2022/10/14 05:34:46;;;;;;;74.18;28.20;;;10.70;99.90;;;;;;5006170;28;20045;-68
2022/10/14 05:37:12;;;;;;;64.95;28.15;;;10.70;99.90;;;;;;4989786;28;20045;-69
2022/10/14 05:39:38;;;;;;;54.92;23.65;;;10.70;99.90;;;;;;5005702;28;20170;-69
2022/10/14 05:42:04;;;;;;;77.18;24.85;;;10.70;99.90;;;;;;5001147;28;20075;-68
2022/10/14 05:44:30;;;;;;;50.60;22.85;;;10.70;99.90;;;;;;5024096;28;20266;-68
2022/10/14 05:46:56;;;;;;;56.63;22.75;;;10.70;99.90;;;;;;4988649;28;20487;-68
2022/10/14 05:49:21;;;;;;;51.53;22.55;;;10.70;99.90;;;;;;4984194;28;20041;-68
2022/10/14 05:51:47;;;;;;;53.45;21.80;;;10.70;99.90;;;;;;5000546;28;20040;-68
2022/10/14 05:54:13;;;;;;;61.83;24.02;;;10.70;99.90;;;;;;5004622;28;20155;-68
2022/10/14 05:56:39;;;;;;;65.32;24.25;;;10.70;99.90;;;;;;5006668;28;20056;-68
2022/10/14 05:59:04;;;;;;;76.15;25.40;;;10.70;99.90;;;;;;4969336;28;20047;-68
2022/10/14 06:01:33;;;;;;;67.15;23.40;;;10.70;99.90;;;;;;5004733;28;20029;-68
2022/10/14 06:03:59;;;;;;;51.00;20.63;;;10.70;99.90;;;;;;5005973;28;20061;-69
2022/10/14 06:06:25;;;;;;;54.75;22.70;;;10.60;99.90;;;;;;5005274;28;20107;-69
2022/10/14 06:08:51;;;;;;;71.53;22.98;;;10.60;99.90;;;;;;4989837;28;20394;-68
2022/10/14 06:11:16;;;;;;;48.53;20.00;;;10.60;99.90;;;;;;4987608;28;20721;-69
2022/10/14 06:13:42;;;;;;;49.20;20.73;;;10.50;99.90;;;;;;4991124;28;20202;-68
2022/10/14 06:16:08;;;;;;;49.20;20.25;;;10.60;99.90;;;;;;4997760;28;20152;-69
2022/10/14 06:18:35;;;;;;;48.22;18.95;;;10.60;99.90;;;;;;4988019;28;20069;-68
2022/10/14 06:21:01;;;;;;;54.28;18.73;;;10.50;99.90;;;;;;5004840;28;20475;-68
2022/10/14 06:23:27;;;;;;;54.25;20.00;;;10.50;99.90;;;;;;5008474;28;20038;-67
2022/10/14 06:25:53;;;;;;;48.33;20.50;;;10.50;99.90;;;;;;5005475;28;20270;-69
2022/10/14 06:28:18;;;;;;;61.95;19.98;;;10.50;99.90;;;;;;5011879;28;20049;-69
2022/10/14 06:30:52;;;;;;;71.40;22.48;;;10.50;99.90;;;;;;4990370;28;20487;-68
2022/10/14 06:33:19;;;;;;;61.60;22.73;;;10.50;99.90;;;;;;4993032;28;20033;-68
2022/10/14 06:35:45;;;;;;;58.92;23.17;;;10.50;99.90;;;;;;5008924;28;20073;-68
2022/10/14 06:38:10;;;;;;;73.90;25.63;;;10.50;99.90;;;;;;5022965;28;20072;-68
2022/10/14 06:40:37;;;;;;;71.47;24.48;;;10.50;99.90;;;;;;4990125;28;20085;-68
2022/10/14 06:43:02;;;;;;;81.82;25.90;;;10.60;99.90;;;;;;5004779;28;20046;-68
2022/10/14 06:45:28;;;;;;;81.07;26.67;;;10.60;99.90;;;;;;5002921;28;20054;-69
2022/10/14 06:47:54;;;;;;;59.85;23.33;;;10.60;99.90;;;;;;5001788;28;20436;-68
2022/10/14 06:50:20;;;;;;;62.25;23.88;;;10.70;99.90;;;;;;5004625;28;20037;-68
2022/10/14 06:52:46;;;;;;;65.85;23.00;;;10.70;99.90;;;;;;4990246;28;20308;-68
2022/10/14 06:55:12;;;;;;;67.90;23.13;;;10.70;99.90;;;;;;5005327;28;20133;-68
2022/10/14 06:57:38;;;;;;;57.45;22.23;;;10.70;99.90;;;;;;4982430;28;20034;-68
2022/10/14 07:00:05;;;;;;;51.33;21.75;;;10.70;99.90;;;;;;4983787;28;20127;-68
2022/10/14 07:02:31;;;;;;;59.80;20.27;;;10.70;99.90;;;;;;5003765;28;20072;-68
2022/10/14 07:04:57;;;;;;;66.78;22.02;;;10.80;99.90;;;;;;5006055;28;20038;-68
2022/10/14 07:07:23;;;;;;;52.33;20.92;;;10.80;99.90;;;;;;5003040;28;20065;-68
2022/10/14 07:09:49;;;;;;;57.88;21.38;;;10.80;99.90;;;;;;4990335;28;20037;-68
2022/10/14 07:12:15;;;;;;;55.08;22.80;;;10.80;99.90;;;;;;4969839;28;20030;-68
2022/10/14 07:14:41;;;;;;;56.50;20.65;;;10.90;99.90;;;;;;4990019;28;20045;-68
2022/10/14 07:17:08;;;;;;;49.47;20.35;;;10.90;99.90;;;;;;5004265;28;20038;-68
2022/10/14 07:19:34;;;;;;;52.80;22.08;;;10.90;99.90;;;;;;5005252;28;20136;-68
2022/10/14 07:21:59;;;;;;;52.75;21.23;;;10.90;99.90;;;;;;5000395;28;20121;-68
2022/10/14 07:24:25;;;;;;;68.32;23.52;;;11.00;99.90;;;;;;4986084;28;20038;-68
2022/10/14 07:26:51;;;;;;;58.20;22.63;;;11.00;99.90;;;;;;4988477;28;20554;-68
2022/10/14 07:29:17;;;;;;;56.28;22.90;;;11.00;99.90;;;;;;5003167;28;20176;-68
2022/10/14 07:31:43;;;;;;;50.38;20.90;;;11.00;99.90;;;;;;5003055;28;20120;-68
2022/10/14 07:34:09;;;;;;;58.83;22.30;;;11.10;99.90;;;;;;5004948;28;20048;-68
2022/10/14 07:36:35;;;;;;;60.95;21.95;;;11.10;99.90;;;;;;4985356;28;20046;-68
2022/10/14 07:39:02;;;;;;;58.83;22.27;;;11.10;99.90;;;;;;5011384;28;20068;-69
2022/10/14 07:41:28;;;;;;;62.13;22.10;;;11.10;99.90;;;;;;5024389;28;20083;-69
2022/10/14 07:44:01;;;;;;;52.50;20.60;;;11.10;99.90;;;;;;5008579;28;20084;-68
2022/10/14 07:46:33;;;;;;;52.75;21.17;;;11.20;99.90;;;;;;4992661;28;20103;-68
2022/10/14 07:49:02;;;;;;;64.05;23.25;;;11.20;99.90;;;;;;5009393;28;20045;-69
2022/10/14 07:51:28;;;;;;;51.33;20.17;;;11.20;99.90;;;;;;5024591;28;20725;-68
2022/10/14 07:53:56;;;;;;;50.30;21.85;;;11.20;99.90;;;;;;4975825;28;20406;-69
2022/10/14 07:56:22;;;;;;;53.70;22.42;;;11.30;99.90;;;;;;5024163;28;20552;-69
2022/10/14 07:58:48;;;;;;;51.92;22.08;;;11.30;99.90;;;;;;4998233;28;20048;-69
2022/10/14 08:01:15;;;;;;;51.13;20.73;;;11.30;99.90;;;;;;5001948;28;20049;-69
2022/10/14 08:03:42;;;;;;;60.25;23.00;;;11.30;99.90;;;;;;4999749;28;20124;-68
2022/10/14 08:06:08;;;;;;;56.85;22.58;;;11.30;99.90;;;;;;5001447;28;20046;-69
2022/10/14 08:08:34;;;;;;;74.75;23.20;;;11.30;99.90;;;;;;5002252;28;20046;-68
2022/10/14 08:11:06;;;;;;;61.53;23.40;;;11.30;99.90;;;;;;5004010;28;20037;-68
2022/10/14 08:13:32;;;;;;;63.47;24.13;;;11.30;99.90;;;;;;5024687;28;20456;-68
2022/10/14 08:15:58;;;;;;;58.42;22.90;;;11.40;99.90;;;;;;5003135;28;20137;-68
2022/10/14 08:18:25;;;;;;;54.95;22.90;;;11.40;99.90;;;;;;4988339;28;20364;-68
2022/10/14 08:20:51;;;;;;;64.57;22.67;;;11.40;99.90;;;;;;5004727;28;20048;-68
2022/10/14 08:23:17;;;;;;;62.65;24.00;;;11.40;99.90;;;;;;5002503;28;20491;-69
2022/10/14 08:25:43;;;;;;;62.13;25.85;;;11.50;99.90;;;;;;4989846;28;20125;-68
2022/10/14 08:28:09;;;;;;;59.50;24.27;;;11.50;99.90;;;;;;4988600;28;20045;-68
2022/10/14 08:30:35;;;;;;;74.13;27.98;;;11.50;99.90;;;;;;4999317;28;20075;-69
2022/10/14 08:33:01;;;;;;;70.85;27.17;;;11.50;99.90;;;;;;4998617;28;20458;-68
2022/10/14 08:35:26;;;;;;;66.15;25.73;;;11.60;99.90;;;;;;4999947;28;20046;-69
2022/10/14 08:37:59;;;;;;;69.97;27.10;;;11.60;99.90;;;;;;5002423;28;20096;-68
2022/10/14 08:40:28;;;;;;;69.30;24.95;;;11.60;99.90;;;;;;4992975;28;20054;-69
2022/10/14 08:43:20;;;;;;;73.63;27.48;;;11.60;99.90;;;;;;4997127;28;20438;-68
2022/10/14 08:45:50;;;;;;;89.28;29.05;;;11.60;99.90;;;;;;4998667;28;20045;-69
2022/10/14 08:48:25;;;;;;;88.70;28.65;;;11.60;99.90;;;;;;5008913;28;20033;-68
2022/10/14 08:51:01;;;;;;;80.10;30.05;;;11.70;99.90;;;;;;4990553;28;20042;-68
2022/10/14 08:53:42;;;;;;;76.18;28.85;;;11.70;99.90;;;;;;5008202;28;20506;-68
2022/10/14 08:56:10;;;;;;;84.60;29.63;;;11.70;99.90;;;;;;5002309;28;20104;-69
2022/10/14 08:58:42;;;;;;;73.13;27.92;;;11.70;99.90;;;;;;5008316;28;20045;-69
2022/10/14 09:01:43;;;;;;;94.07;31.17;;;11.80;99.90;;;;;;5004842;28;20042;-68
2022/10/14 09:04:13;;;;;;;80.45;27.52;;;11.80;99.90;;;;;;4991840;28;20085;-69
2022/10/14 09:06:43;;;;;;;78.05;28.63;;;11.90;99.90;;;;;;4991178;28;20046;-69
2022/10/14 09:09:13;;;;;;;84.45;28.38;;;11.90;99.90;;;;;;5006428;28;20037;-69
2022/10/14 09:11:42;;;;;;;89.15;31.38;;;11.90;99.90;;;;;;5005822;28;20045;-69
2022/10/14 09:14:16;;;;;;;85.63;30.63;;;12.00;99.90;;;;;;5005743;28;20034;-69
2022/10/14 09:16:44;;;;;;;82.97;29.95;;;12.00;99.90;;;;;;4992221;28;20050;-69
2022/10/14 09:19:40;;;;;;;75.65;29.42;;;12.00;99.90;;;;;;5004505;28;20069;-69
2022/10/14 09:22:12;;;;;;;85.18;28.58;;;12.00;99.90;;;;;;5005719;28;20042;-69
2022/10/14 09:24:38;;;;;;;70.05;31.00;;;12.00;99.90;;;;;;5004135;28;20054;-69
2022/10/14 09:27:10;;;;;;;82.50;29.52;;;12.00;99.90;;;;;;5007516;28;20041;-69
2022/10/14 09:29:53;;;;;;;88.85;30.25;;;12.00;99.90;;;;;;5005951;28;20503;-69
2022/10/14 09:32:43;;;;;;;74.68;28.55;;;12.10;99.90;;;;;;4985977;28;20069;-69
2022/10/14 09:35:36;;;;;;;85.00;29.38;;;12.10;99.90;;;;;;5000065;28;20042;-69
2022/10/14 09:38:02;;;;;;;82.78;29.40;;;12.10;99.90;;;;;;5000977;28;20519;-69
2022/10/14 09:40:46;;;;;;;84.10;31.42;;;12.10;99.90;;;;;;4992022;28;20551;-69
2022/10/14 09:43:18;;;;;;;80.43;30.63;;;12.20;99.90;;;;;;4989679;28;20427;-69
2022/10/14 09:45:52;;;;;;;77.68;27.60;;;12.20;99.90;;;;;;5002041;28;20512;-69
2022/10/14 09:48:38;;;;;;;79.47;29.50;;;12.20;99.90;;;;;;5004346;28;20037;-69
2022/10/14 09:51:10;;;;;;;79.40;28.88;;;12.20;99.90;;;;;;5001202;28;20077;-69
2022/10/14 09:53:41;;;;;;;78.47;31.65;;;12.20;99.90;;;;;;5007710;28;20096;-70
2022/10/14 09:56:09;;;;;;;79.38;30.23;;;12.30;99.90;;;;;;5000267;28;20495;-69
2022/10/14 09:58:38;;;;;;;76.75;29.67;;;12.30;99.90;;;;;;5007293;28;20141;-69
2022/10/14 10:01:07;;;;;;;75.60;29.85;;;12.30;99.90;;;;;;4988919;28;20042;-69
2022/10/14 10:03:34;;;;;;;75.18;28.33;;;12.30;99.90;;;;;;4986015;28;20049;-69
2022/10/14 10:06:09;;;;;;;74.90;29.58;;;12.30;99.90;;;;;;5007860;28;20038;-69
2022/10/14 10:08:38;;;;;;;90.25;31.30;;;12.30;99.90;;;;;;5005465;28;20038;-69
2022/10/14 10:11:09;;;;;;;87.85;31.42;;;12.30;99.90;;;;;;5002354;28;20042;-69
2022/10/14 10:13:43;;;;;;;69.00;25.63;;;12.30;99.90;;;;;;4998214;28;20091;-69
2022/10/14 10:16:35;;;;;;;85.88;30.55;;;12.30;99.90;;;;;;4982018;28;20042;-69
2022/10/14 10:19:26;;;;;;;84.67;29.33;;;12.30;99.90;;;;;;4994002;28;20050;-69
2022/10/14 10:21:52;;;;;;;90.68;32.67;;;12.30;99.90;;;;;;5000928;28;20045;-69
2022/10/14 10:24:21;;;;;;;106.75;35.92;;;12.30;99.90;;;;;;4981353;28;20326;-69
2022/10/14 10:26:47;;;;;;;76.55;29.67;;;12.30;99.90;;;;;;4984245;28;20054;-69
2022/10/14 10:29:27;;;;;;;104.18;33.42;;;12.40;99.90;;;;;;4992476;28;20526;-69
2022/10/14 10:32:41;;;;;;;94.45;31.33;;;12.40;99.90;;;;;;4981143;28;20048;-69
2022/10/14 10:35:26;;;;;;;98.25;33.63;;;12.40;99.90;;;;;;4981767;28;20038;-69
2022/10/14 10:38:22;;;;;;;108.18;34.05;;;12.40;99.90;;;;;;4984298;28;20038;-69
2022/10/14 10:41:15;;;;;;;108.85;32.47;;;12.40;99.90;;;;;;4983717;28;20574;-69
2022/10/14 10:43:41;;;;;;;;;;;12.40;99.90;;;;;;4983098;28;20061;-69
2022/10/14 10:46:07;;;;;;;95.18;30.83;;;12.50;99.90;;;;;;4970986;28;19954;-70
2022/10/14 10:48:44;;;;;;;93.63;29.98;;;12.50;99.90;;;;;;4990076;28;20574;-70
2022/10/14 10:51:21;;;;;;;96.88;31.35;;;12.50;99.90;;;;;;4970437;28;20042;-70
2022/10/14 10:54:01;;;;;;;111.65;31.50;;;12.60;99.90;;;;;;4979321;28;20125;-70
2022/10/14 10:56:59;;;;;;;86.15;30.08;;;12.60;99.90;;;;;;4986402;28;20117;-70
2022/10/14 10:59:47;;;;;;;72.78;27.63;;;12.60;99.90;;;;;;4976395;28;20054;-69
2022/10/14 11:02:44;;;;;;;88.65;30.35;;;12.60;99.90;;;;;;4983538;28;20042;-69
2022/10/14 11:05:16;;;;;;;99.85;32.53;;;12.60;99.90;;;;;;4982534;28;20041;-69
2022/10/14 11:13:46;;;;;;;143.38;37.60;;;12.60;99.90;;;;;;4999746;28;20073;-69
2022/10/14 11:16:38;;;;;;;109.03;35.40;;;12.60;99.90;;;;;;4986403;28;20045;-69
2022/10/14 11:19:17;;;;;;;105.53;34.00;;;12.60;99.90;;;;;;4987979;28;20042;-70
2022/10/14 11:21:48;;;;;;;114.25;36.67;;;12.60;99.90;;;;;;4988731;28;20053;-69
2022/10/14 11:24:20;;;;;;;120.22;37.55;;;12.70;99.90;;;;;;4989213;28;20037;-68
2022/10/14 11:26:55;;;;;;;121.80;40.80;;;12.70;99.90;;;;;;4989012;28;20049;-69
2022/10/14 11:29:38;;;;;;;115.40;37.83;;;12.70;99.90;;;;;;4987468;28;20037;-69
2022/10/14 11:32:21;;;;;;;144.88;40.92;;;12.80;99.90;;;;;;5008142;28;20487;-69
2022/10/14 11:34:52;;;;;;;149.85;43.38;;;12.80;99.90;;;;;;5005532;28;20033;-69
2022/10/14 11:37:35;;;;;;;148.98;41.90;;;12.80;99.90;;;;;;5006571;28;20173;-70
2022/10/14 11:40:23;;;;;;;138.68;41.88;;;12.90;99.90;;;;;;4999281;28;20054;-69
2022/10/14 11:43:00;;;;;;;147.50;41.15;;;13.00;99.90;;;;;;5000629;28;20056;-69
2022/10/14 11:45:45;;;;;;;158.18;43.33;;;13.00;99.90;;;;;;4985800;28;20153;-69
2022/10/14 11:48:28;;;;;;;126.13;40.40;;;13.00;99.90;;;;;;5004188;28;20042;-69
2022/10/14 11:51:01;;;;;;;122.72;41.83;;;13.00;99.90;;;;;;5001354;28;20495;-69
2022/10/14 11:53:42;;;;;;;134.57;43.55;;;13.10;99.90;;;;;;4988386;28;20121;-69
2022/10/14 11:56:16;;;;;;;116.22;41.65;;;13.20;99.90;;;;;;5004539;28;20117;-69
2022/10/14 11:58:45;;;;;;;113.35;40.65;;;13.20;99.90;;;;;;5006730;28;20049;-69
2022/10/14 12:01:13;;;;;;;114.97;41.60;;;13.30;99.90;;;;;;4990316;28;20042;-69
2022/10/14 12:03:48;;;;;;;130.38;43.00;;;13.30;99.90;;;;;;5004684;28;20050;-69
2022/10/14 12:06:51;;;;;;;115.65;42.33;;;13.30;99.90;;;;;;5003365;28;20126;-69
2022/10/14 12:09:37;;;;;;;117.85;42.20;;;13.40;99.90;;;;;;5004132;28;20092;-69
2022/10/14 12:12:07;;;;;;;128.98;41.35;;;13.40;99.90;;;;;;5004454;28;20487;-69
2022/10/14 12:14:49;;;;;;;94.47;39.20;;;13.50;99.90;;;;;;5005821;28;20041;-69
2022/10/14 12:17:26;;;;;;;105.22;41.33;;;13.50;99.90;;;;;;5003229;28;20543;-68
2022/10/14 12:19:52;;;;;;;108.82;41.30;;;13.50;99.90;;;;;;5003358;28;20046;-69
2022/10/14 12:22:25;;;;;;;118.80;41.08;;;13.50;99.90;;;;;;5004922;28;20460;-69
2022/10/14 12:25:02;;;;;;;105.13;41.00;;;13.50;99.90;;;;;;4984516;28;20095;-69
2022/10/14 12:27:31;;;;;;;109.50;41.40;;;13.50;99.90;;;;;;5000661;28;20038;-69
2022/10/14 12:29:57;;;;;;;116.22;42.47;;;13.50;99.90;;;;;;5001774;28;20509;-68
2022/10/14 12:32:30;;;;;;;106.10;40.70;;;13.50;99.90;;;;;;4988301;28;20074;-68
2022/10/14 12:35:00;;;;;;;84.43;38.30;;;13.60;99.90;;;;;;4989185;28;20038;-68
2022/10/14 12:37:33;;;;;;;100.28;38.88;;;13.60;99.90;;;;;;4986341;28;20100;-69
2022/10/14 12:40:04;;;;;;;100.90;39.00;;;13.60;99.90;;;;;;4988664;28;20153;-70
2022/10/14 12:42:34;;;;;;;99.03;38.45;;;13.60;99.90;;;;;;5003421;28;20042;-70
2022/10/14 12:45:02;;;;;;;93.40;38.92;;;13.60;99.90;;;;;;5004751;28;20049;-69
2022/10/14 12:47:33;;;;;;;88.13;37.72;;;13.60;99.90;;;;;;5001087;28;20161;-70